Kiowa, CO

3:03 AM MDT on August 20, 2014 (GMT -0600)
Meadow Hill Lane, Elizabeth | Change Station
CLOSE
Current Station
Personal Weather Station
Location: Elizabeth, CO
Elevation: 6552 ft
Nearby Weather Stations

Elev 6552 ft 39.35 °N, 104.53 °W | Updated 4 minutes ago

Scattered Clouds
Scattered Clouds
58.8 °F
Feels Like 58.8 °F
N
2.0
Wind Variable Wind from SW
Gusts 4.0 mph

Today
High -- | Low -- °F
--% Chance of Precip.
Yesterday
High -- | Low -- °F
Precip. -- in
6:15 AM 7:46 PM
Waning Crescent, 23% visible
Pressure 30.03 in
Visibility 10.0 miles
Clouds Scattered Clouds 11000 ft
Dew Point 50 °F
Humidity 73%
Rainfall 0.00 in
Snow Depth Not available.
UV 0 out of 12
Pollen 9.60 out of 12
PM2.5 Good
Flu Activity Not available.
METAR KMNH 200853Z AUTO 20004KT 10SM SCT110 14/08 A3003 RMK AO2

More Conditions Fewer Conditions

Pressure 30.03 in
Visibility 10.0 miles
Clouds Scattered Clouds 11000 ft
Dew Point 50 °F
Humidity 73%
Rainfall 0.00 in
Snow Depth Not available.
UV 0 out of 12
Pollen 9.60 out of 12
PM2.5 Good
Flu Activity Not available.
METAR KMNH 200853Z AUTO 20004KT 10SM SCT110 14/08 A3003 RMK AO2

More Conditions Fewer Conditions

10-Day Weather Forecast

Almanac

Astronomy

Aug. 20, 2014 Rise Set
Actual Time 6:15 AM MDT 7:46 PM MDT
Civil Twilight 5:47 AM MDT 8:14 PM MDT
Nautical Twilight 5:12 AM MDT 8:48 PM MDT
Astronomical Twilight 4:36 AM MDT 9:24 PM MDT
Moon 1:57 AM MDT 4:32 PM MDT
Length of Visible Light 14h 27m
Length of Day
13h 31m
Tomorrow will be 2m 20s shorter.
Waning Crescent, 23% of the Moon is Illuminated
Today
Waning Crescent
Aug 25
New
Sep 2
First Quarter
Sep 8
Full
Sep 15
Last Quarter

Today's Extremes

State Highs State Lows

Community

WunderPhotos

Upload Photos

1,745,604 photos uploaded!

Nearby

Air Quality

  Air Quality AQ Index Pollutant
Yesterday Good
PM10
Yesterday Good
OZONE
Current Good
PM2.5
Wednesday Moderate
OZONE
Wednesday Good
PM2.5

Snow Depth

Station Depth Elevation
Echo Lake 0 in 10600 ft
Jackwhacker Gulch 0 in 10960 ft
Niwot 0 in 9910 ft
University Camp 0 in 10300 ft
Berthoud Summit 1 in 11300 ft

Earthquake Activity

City Distance Mag. Time & Date
No recent earthquake activity has been reported nearby.
Minimum magnitude displayed is 2.5.

Coastal Water Temperatures

Place Temperature
No Stations Reporting

Nearby Weather Stations